Time;durP1;ratioP1;P1;durP2;ratioP2;P2;SDS_P1;SDS_P2;PMS_P1;PMS_P2;Temp;Humidity;BMP_temperature;BMP_pressure;BME280_temperature;BME280_humidity;BME280_pressure;Samples;Min_cycle;Max_cycle;Signal;HPM_P1;HPM_P2
2022/08/27 00:00:37;;;;;;;41.00;23.90;;;18.90;99.90;;;;;;5253737;28;20617;-51
2022/08/27 00:03:07;;;;;;;40.90;23.50;;;18.90;99.90;;;;;;5252987;28;20186;-50
2022/08/27 00:05:39;;;;;;;17.57;15.10;;;18.80;99.90;;;;;;5261834;28;20288;-49
2022/08/27 00:08:12;;;;;;;19.87;14.33;;;18.80;99.90;;;;;;5259922;28;20621;-51
2022/08/27 00:10:43;;;;;;;21.57;16.20;;;18.90;99.90;;;;;;5253543;28;20435;-49
2022/08/27 00:13:14;;;;;;;23.20;16.30;;;18.90;99.90;;;;;;5265036;28;20504;-48
2022/08/27 00:15:45;;;;;;;25.07;16.60;;;18.90;99.90;;;;;;5262635;28;20788;-51
2022/08/27 00:18:17;;;;;;;36.23;20.30;;;18.90;99.90;;;;;;5261832;28;20543;-48
2022/08/27 00:20:47;;;;;;;25.17;15.83;;;18.90;99.90;;;;;;5259719;28;20641;-49
2022/08/27 00:23:18;;;;;;;36.33;21.30;;;18.90;99.90;;;;;;5251828;28;20438;-49
2022/08/27 00:25:48;;;;;;;25.80;17.73;;;18.80;99.90;;;;;;5258875;28;20208;-51
2022/08/27 00:28:19;;;;;;;19.77;15.40;;;18.80;99.90;;;;;;5257334;28;20229;-48
2022/08/27 00:30:50;;;;;;;16.93;13.87;;;18.80;99.90;;;;;;5257747;28;20186;-50
2022/08/27 00:33:21;;;;;;;36.10;18.80;;;18.90;99.90;;;;;;5260593;28;20227;-50
2022/08/27 00:35:52;;;;;;;21.60;16.50;;;18.90;99.90;;;;;;5258339;28;20795;-50
2022/08/27 00:38:23;;;;;;;29.30;18.17;;;18.90;99.90;;;;;;5254852;28;20463;-49
2022/08/27 00:40:54;;;;;;;27.43;17.60;;;18.90;99.90;;;;;;5255814;28;20478;-50
2022/08/27 00:43:30;;;;;;;38.70;18.23;;;18.90;99.90;;;;;;5253538;28;20182;-50
2022/08/27 00:46:09;;;;;;;37.17;22.50;;;18.90;99.90;;;;;;5249189;28;20193;-50
2022/08/27 00:48:40;;;;;;;29.87;19.13;;;18.90;99.90;;;;;;5263823;28;20532;-50
2022/08/27 00:51:11;;;;;;;25.67;17.83;;;18.80;99.90;;;;;;5248676;28;20474;-50
2022/08/27 00:53:41;;;;;;;22.90;16.20;;;18.90;99.90;;;;;;5253310;28;20202;-49
2022/08/27 00:56:18;;;;;;;32.63;18.57;;;18.90;99.90;;;;;;5259403;28;20236;-50
2022/08/27 00:58:51;;;;;;;23.07;17.40;;;18.90;99.90;;;;;;5261238;28;20205;-50
2022/08/27 01:01:27;;;;;;;19.90;16.03;;;18.90;99.90;;;;;;5246456;28;20480;-50
2022/08/27 01:04:04;;;;;;;22.30;16.03;;;18.90;99.90;;;;;;5257343;28;20423;-50
2022/08/27 01:06:36;;;;;;;20.60;16.43;;;18.90;99.90;;;;;;5265080;28;20430;-50
2022/08/27 01:09:12;;;;;;;45.43;23.37;;;19.00;99.90;;;;;;5250781;28;20452;-51
2022/08/27 01:11:43;;;;;;;24.70;17.50;;;19.00;99.90;;;;;;5252936;28;20662;-49
2022/08/27 01:14:15;;;;;;;29.13;19.93;;;19.00;99.90;;;;;;5264033;28;20529;-50
2022/08/27 01:16:53;;;;;;;24.37;16.60;;;18.90;99.90;;;;;;5269776;28;20431;-50
2022/08/27 01:19:32;;;;;;;26.80;18.63;;;19.00;99.90;;;;;;5252646;28;20975;-50
2022/08/27 01:22:27;;;;;;;21.60;16.47;;;19.10;99.90;;;;;;5260689;28;20435;-49
2022/08/27 01:25:04;;;;;;;22.20;15.00;;;19.10;99.90;;;;;;5259807;28;20493;-49
2022/08/27 01:27:35;;;;;;;34.17;18.00;;;19.20;99.90;;;;;;5263612;28;20496;-52
2022/08/27 01:30:08;;;;;;;23.70;15.93;;;19.20;99.90;;;;;;5264801;28;20495;-50
2022/08/27 01:32:39;;;;;;;24.87;15.90;;;19.30;99.90;;;;;;5262360;28;20654;-51
2022/08/27 01:35:13;;;;;;;20.10;14.63;;;19.20;99.90;;;;;;5261741;28;20548;-52
2022/08/27 01:37:45;;;;;;;24.67;19.13;;;19.30;99.90;;;;;;5261706;28;20198;-50
2022/08/27 01:40:18;;;;;;;26.37;18.50;;;19.30;99.90;;;;;;5259151;28;20424;-49
2022/08/27 01:42:52;;;;;;;27.13;18.40;;;19.30;99.90;;;;;;5258691;28;20441;-49
2022/08/27 01:45:35;;;;;;;22.00;15.27;;;19.30;99.90;;;;;;5255848;28;20427;-50
2022/08/27 01:48:09;;;;;;;18.10;14.50;;;19.30;99.90;;;;;;5250925;28;21073;-49
2022/08/27 01:50:40;;;;;;;23.33;15.97;;;19.20;99.90;;;;;;5245998;28;20440;-50
2022/08/27 01:53:15;;;;;;;34.43;19.70;;;19.30;99.90;;;;;;5264101;28;20493;-50
2022/08/27 01:55:47;;;;;;;26.00;18.37;;;19.30;99.90;;;;;;5261270;28;20432;-50
2022/08/27 01:58:21;;;;;;;26.43;18.07;;;19.20;99.90;;;;;;5262789;28;20459;-49
2022/08/27 02:00:55;;;;;;;33.70;20.97;;;19.20;99.90;;;;;;5253720;28;20466;-49
2022/08/27 02:03:26;;;;;;;30.40;19.10;;;19.20;99.90;;;;;;5256085;28;20431;-49
2022/08/27 02:05:57;;;;;;;26.77;16.00;;;19.20;99.90;;;;;;5263651;28;20435;-49
2022/08/27 02:08:28;;;;;;;26.33;18.40;;;19.20;99.90;;;;;;5251712;28;20694;-51
2022/08/27 02:10:59;;;;;;;25.67;15.87;;;19.20;99.90;;;;;;5258503;28;20434;-50
2022/08/27 02:13:30;;;;;;;26.97;17.67;;;19.20;99.90;;;;;;5263517;28;20312;-49
2022/08/27 02:16:00;;;;;;;37.43;19.90;;;19.30;99.90;;;;;;5261680;28;20528;-50
2022/08/27 02:18:33;;;;;;;53.10;26.80;;;19.20;99.90;;;;;;5255952;28;20204;-48
2022/08/27 02:21:04;;;;;;;34.17;17.80;;;19.30;99.90;;;;;;5244685;28;20266;-49
2022/08/27 02:23:35;;;;;;;32.53;20.30;;;19.30;99.90;;;;;;5259621;28;20467;-49
2022/08/27 02:26:06;;;;;;;43.60;22.20;;;19.30;99.90;;;;;;5264140;28;20875;-48
2022/08/27 02:28:37;;;;;;;54.07;25.63;;;19.30;99.90;;;;;;5274080;28;20202;-49
2022/08/27 02:31:08;;;;;;;40.53;21.77;;;19.30;99.90;;;;;;5259068;28;20432;-51
2022/08/27 02:33:38;;;;;;;28.93;19.83;;;19.30;99.90;;;;;;5260294;28;20205;-50
2022/08/27 02:36:09;;;;;;;33.63;19.10;;;19.40;99.90;;;;;;5261161;28;20235;-49
2022/08/27 02:38:40;;;;;;;54.13;26.20;;;19.30;99.90;;;;;;5258429;28;20220;-49
2022/08/27 02:41:13;;;;;;;45.97;24.50;;;19.40;99.90;;;;;;5257059;28;20439;-50
2022/08/27 02:43:44;;;;;;;31.40;19.17;;;19.40;99.90;;;;;;5252926;28;20542;-49
2022/08/27 02:46:15;;;;;;;57.90;23.73;;;19.40;99.90;;;;;;5254230;28;20427;-50
2022/08/27 02:48:46;;;;;;;47.60;24.50;;;19.40;99.90;;;;;;5254851;28;20495;-50
2022/08/27 02:51:16;;;;;;;48.43;23.30;;;19.40;99.90;;;;;;5251971;28;20522;-50
2022/08/27 02:53:50;;;;;;;50.73;24.20;;;19.40;99.90;;;;;;5258322;28;20194;-49
2022/08/27 02:56:20;;;;;;;31.90;19.57;;;19.40;99.90;;;;;;5258688;28;20180;-51
2022/08/27 02:58:51;;;;;;;33.40;19.90;;;19.50;99.90;;;;;;5252008;28;20448;-50
2022/08/27 03:01:22;;;;;;;33.63;20.63;;;19.50;99.90;;;;;;5259488;28;20641;-48
2022/08/27 03:03:52;;;;;;;38.77;23.40;;;19.50;99.90;;;;;;5260141;28;20200;-49
2022/08/27 03:06:23;;;;;;;38.13;21.83;;;19.50;99.90;;;;;;5258054;28;20569;-49
2022/08/27 03:08:53;;;;;;;38.20;22.10;;;19.50;99.90;;;;;;5260123;28;20194;-50
2022/08/27 03:11:24;;;;;;;37.03;22.37;;;19.50;99.90;;;;;;5255600;28;20281;-49
2022/08/27 03:13:55;;;;;;;43.60;23.83;;;19.50;99.90;;;;;;5262316;28;20194;-50
2022/08/27 03:16:25;;;;;;;39.57;22.30;;;19.50;99.90;;;;;;5263926;28;20179;-50
2022/08/27 03:18:56;;;;;;;40.77;21.50;;;19.50;99.90;;;;;;5260747;28;20216;-51
2022/08/27 03:21:27;;;;;;;44.60;22.53;;;19.60;99.90;;;;;;5257083;28;20259;-51
2022/08/27 03:24:00;;;;;;;44.57;20.60;;;19.60;99.90;;;;;;5257788;28;20276;-50
2022/08/27 03:26:30;;;;;;;39.43;23.53;;;19.60;99.90;;;;;;5250023;28;20175;-50
2022/08/27 03:29:01;;;;;;;48.20;23.60;;;19.60;99.90;;;;;;5262607;28;20485;-49
2022/08/27 03:31:32;;;;;;;55.53;26.03;;;19.60;99.90;;;;;;5250217;28;20567;-49
2022/08/27 03:34:06;;;;;;;46.17;20.77;;;19.60;99.90;;;;;;5263508;28;20252;-49
2022/08/27 03:36:37;;;;;;;44.40;24.60;;;19.60;99.90;;;;;;5252510;28;20829;-50
2022/08/27 03:39:08;;;;;;;86.77;33.33;;;19.60;99.90;;;;;;5261409;28;20452;-51
2022/08/27 03:41:39;;;;;;;44.10;23.33;;;19.60;99.90;;;;;;5258724;28;20178;-51
2022/08/27 03:44:10;;;;;;;43.03;23.77;;;19.60;99.90;;;;;;5260127;28;20492;-50
2022/08/27 03:46:41;;;;;;;84.60;35.27;;;19.60;99.90;;;;;;5258508;28;20174;-50
2022/08/27 03:49:11;;;;;;;44.30;24.67;;;19.60;99.90;;;;;;5274873;22;20916;-51
2022/08/27 03:51:42;;;;;;;54.10;27.10;;;19.50;99.90;;;;;;5262223;28;20180;-50
2022/08/27 03:54:13;;;;;;;57.90;28.73;;;19.50;99.90;;;;;;5260112;28;20237;-50
2022/08/27 03:56:44;;;;;;;52.53;29.53;;;19.50;99.90;;;;;;5263951;28;20195;-50
2022/08/27 03:59:17;;;;;;;44.73;24.00;;;19.50;99.90;;;;;;5246265;28;20703;-51
2022/08/27 04:01:48;;;;;;;74.97;31.80;;;19.50;99.90;;;;;;5234512;28;20425;-50
2022/08/27 04:04:19;;;;;;;74.47;32.77;;;19.60;99.90;;;;;;5243270;28;20436;-50
2022/08/27 04:06:49;;;;;;;45.83;24.00;;;19.60;99.90;;;;;;5241415;28;20190;-51
2022/08/27 04:09:20;;;;;;;41.97;24.80;;;19.50;99.90;;;;;;5240291;28;20236;-50
2022/08/27 04:11:50;;;;;;;48.50;24.97;;;19.50;99.90;;;;;;5238720;28;20660;-50
2022/08/27 04:14:21;;;;;;;51.27;26.10;;;19.50;99.90;;;;;;5245209;28;20209;-51
2022/08/27 04:16:53;;;;;;;44.77;26.03;;;19.50;99.90;;;;;;5238164;28;20179;-48
2022/08/27 04:19:26;;;;;;;53.67;26.50;;;19.50;99.90;;;;;;5235439;28;20198;-50
2022/08/27 04:22:03;;;;;;;57.77;26.87;;;19.50;99.90;;;;;;5234694;28;20439;-51
2022/08/27 04:24:36;;;;;;;84.20;34.63;;;19.50;99.90;;;;;;5233455;28;20427;-50
2022/08/27 04:27:06;;;;;;;69.57;31.47;;;19.50;99.90;;;;;;5236213;28;20494;-50
2022/08/27 04:29:37;;;;;;;53.23;24.80;;;19.50;99.90;;;;;;5234707;28;20432;-49
2022/08/27 04:32:08;;;;;;;51.10;23.63;;;19.50;99.90;;;;;;5230472;28;20193;-50
2022/08/27 04:34:39;;;;;;;36.73;20.53;;;19.40;99.90;;;;;;5237524;28;20309;-50
2022/08/27 04:37:10;;;;;;;42.63;22.93;;;19.40;99.90;;;;;;5243264;28;20218;-49
2022/08/27 04:39:40;;;;;;;38.17;21.57;;;19.40;99.90;;;;;;5241663;28;20507;-50
2022/08/27 04:42:11;;;;;;;51.27;25.33;;;19.40;99.90;;;;;;5237049;28;20190;-50
2022/08/27 04:44:41;;;;;;;43.83;23.10;;;19.50;99.90;;;;;;5237099;28;20217;-50
2022/08/27 04:47:13;;;;;;;35.37;20.77;;;19.40;99.90;;;;;;5235440;28;20186;-50
2022/08/27 04:49:44;;;;;;;34.87;21.10;;;19.40;99.90;;;;;;5246130;28;20195;-51
2022/08/27 04:52:14;;;;;;;67.77;26.73;;;19.50;99.90;;;;;;5264909;28;20510;-50
2022/08/27 04:54:45;;;;;;;38.83;22.67;;;19.50;99.90;;;;;;5258011;28;20681;-50
2022/08/27 04:57:16;;;;;;;40.83;24.13;;;19.40;99.90;;;;;;5248291;28;20529;-51
2022/08/27 04:59:47;;;;;;;48.20;24.50;;;19.40;99.90;;;;;;5263070;28;20215;-50
2022/08/27 05:02:17;;;;;;;44.13;23.63;;;19.50;99.90;;;;;;5239724;28;20439;-50
2022/08/27 05:04:48;;;;;;;41.03;21.90;;;19.50;99.90;;;;;;5274412;28;20186;-47
2022/08/27 05:07:19;;;;;;;38.97;21.50;;;19.50;99.90;;;;;;5253565;28;20420;-47
2022/08/27 05:09:51;;;;;;;66.40;26.70;;;19.40;99.90;;;;;;5264034;28;20182;-46
2022/08/27 05:12:21;;;;;;;50.27;24.50;;;19.60;99.90;;;;;;5268046;28;20308;-51
2022/08/27 05:14:53;;;;;;;35.50;22.33;;;19.50;99.90;;;;;;5242695;28;20554;-47
2022/08/27 05:17:24;;;;;;;46.43;24.30;;;19.50;99.90;;;;;;5266398;28;20178;-47
2022/08/27 05:19:54;;;;;;;66.60;27.67;;;19.50;99.90;;;;;;5247398;28;20462;-50
2022/08/27 05:22:26;;;;;;;37.10;21.27;;;19.50;99.90;;;;;;5267890;28;20614;-48
2022/08/27 05:24:57;;;;;;;40.30;23.40;;;19.50;99.90;;;;;;5251064;28;20281;-47
2022/08/27 05:27:27;;;;;;;51.57;25.50;;;19.50;99.90;;;;;;5250589;28;20558;-46
2022/08/27 05:29:58;;;;;;;70.50;29.77;;;19.60;99.90;;;;;;5270941;28;20189;-47
2022/08/27 05:32:29;;;;;;;31.60;21.50;;;19.50;99.90;;;;;;5261288;28;20216;-50
2022/08/27 05:35:00;;;;;;;37.03;21.30;;;19.50;99.90;;;;;;5261060;28;20236;-48
2022/08/27 05:37:32;;;;;;;61.27;27.07;;;19.50;99.90;;;;;;5251799;28;21012;-47
2022/08/27 05:40:04;;;;;;;42.93;22.43;;;19.50;99.90;;;;;;5264126;28;20213;-46
2022/08/27 05:42:35;;;;;;;53.07;26.63;;;19.50;99.90;;;;;;5262969;28;20833;-46
2022/08/27 05:45:06;;;;;;;40.50;24.17;;;19.60;99.90;;;;;;5265880;28;20531;-49
2022/08/27 05:47:36;;;;;;;40.10;20.13;;;19.60;99.90;;;;;;5245934;28;20827;-47
2022/08/27 05:50:08;;;;;;;38.30;19.40;;;19.60;99.90;;;;;;5239280;28;20539;-46
2022/08/27 05:52:39;;;;;;;41.33;21.47;;;19.60;99.90;;;;;;5247515;28;20199;-46
2022/08/27 05:55:11;;;;;;;41.13;21.50;;;19.60;99.90;;;;;;5247252;28;20495;-49
2022/08/27 05:57:41;;;;;;;30.43;19.50;;;19.70;99.90;;;;;;5245330;28;20494;-47
2022/08/27 06:03:01;;;;;;;49.37;24.03;;;19.70;99.90;;;;;;5246511;28;20638;-46
2022/08/27 06:05:32;;;;;;;32.97;16.87;;;19.60;99.90;;;;;;5243424;28;20424;-49
2022/08/27 06:08:03;;;;;;;27.27;17.43;;;19.60;99.90;;;;;;5249614;28;20201;-48
2022/08/27 06:10:37;;;;;;;28.00;18.80;;;19.60;99.90;;;;;;5250475;28;20261;-47
2022/08/27 06:13:08;;;;;;;46.30;22.90;;;19.70;99.90;;;;;;5246985;28;20437;-51
2022/08/27 06:15:38;;;;;;;52.73;24.37;;;19.60;99.90;;;;;;5244194;28;20500;-46
2022/08/27 06:18:12;;;;;;;34.33;18.20;;;19.60;99.90;;;;;;5246277;28;20207;-50
2022/08/27 06:20:42;;;;;;;43.50;20.73;;;19.60;99.90;;;;;;5238704;28;20650;-48
2022/08/27 06:23:13;;;;;;;52.43;19.50;;;19.60;99.90;;;;;;5243391;28;20468;-46
2022/08/27 06:25:44;;;;;;;27.07;18.23;;;19.70;99.90;;;;;;5244663;28;20585;-48
2022/08/27 06:28:15;;;;;;;20.03;15.63;;;19.70;99.90;;;;;;5238176;28;20277;-52
2022/08/27 06:30:46;;;;;;;20.77;14.30;;;19.70;99.90;;;;;;5240537;28;20178;-52
2022/08/27 06:33:19;;;;;;;41.60;18.97;;;19.80;99.90;;;;;;5237452;28;20178;-52
2022/08/27 06:35:50;;;;;;;39.30;20.37;;;19.70;99.90;;;;;;5238803;28;20240;-53
2022/08/27 06:38:20;;;;;;;19.93;14.03;;;19.60;99.90;;;;;;5245364;28;20472;-51
2022/08/27 06:40:51;;;;;;;35.33;18.80;;;19.60;99.90;;;;;;5245167;28;20655;-51
2022/08/27 06:43:22;;;;;;;19.60;13.43;;;19.60;99.90;;;;;;5246818;28;20553;-52
2022/08/27 06:45:53;;;;;;;21.50;13.53;;;19.60;99.90;;;;;;5246730;28;20261;-52
2022/08/27 06:48:24;;;;;;;25.07;15.80;;;19.70;99.90;;;;;;5254093;28;20562;-51
2022/08/27 06:50:54;;;;;;;31.57;15.13;;;19.80;99.90;;;;;;5246009;28;20181;-48
2022/08/27 06:53:25;;;;;;;33.10;17.03;;;19.70;99.90;;;;;;5266185;28;20201;-48
2022/08/27 06:55:56;;;;;;;16.83;12.30;;;19.60;99.90;;;;;;5255678;28;20190;-49
2022/08/27 06:58:26;;;;;;;13.97;11.00;;;19.70;99.90;;;;;;5260113;28;20254;-46
2022/08/27 07:00:57;;;;;;;21.90;12.80;;;19.80;99.90;;;;;;5235774;28;20482;-49
2022/08/27 07:03:28;;;;;;;14.67;11.37;;;19.90;99.90;;;;;;5265746;28;20215;-48
2022/08/27 07:06:08;;;;;;;19.40;12.93;;;19.90;99.90;;;;;;5254024;28;20185;-47
2022/08/27 07:08:39;;;;;;;17.13;11.20;;;20.00;99.90;;;;;;5248741;28;20208;-50
2022/08/27 07:11:13;;;;;;;22.43;12.77;;;20.20;99.90;;;;;;5250757;28;20745;-50
2022/08/27 07:13:46;;;;;;;17.63;12.50;;;20.10;99.90;;;;;;5251020;28;20471;-50
2022/08/27 07:16:21;;;;;;;16.03;11.80;;;20.10;99.90;;;;;;5254102;28;20431;-51
2022/08/27 07:18:53;;;;;;;24.93;13.53;;;20.20;99.90;;;;;;5249102;28;20462;-50
2022/08/27 07:21:25;;;;;;;17.93;10.90;;;20.10;99.90;;;;;;5244242;28;20955;-50
2022/08/27 07:24:03;;;;;;;17.87;12.27;;;20.10;99.90;;;;;;5239819;28;20438;-51
2022/08/27 07:26:37;;;;;;;17.40;11.73;;;20.10;99.90;;;;;;5253842;28;20878;-51
2022/08/27 07:29:10;;;;;;;16.47;10.57;;;20.10;99.90;;;;;;5241706;28;20456;-51
2022/08/27 07:31:41;;;;;;;17.97;11.97;;;20.20;99.90;;;;;;5246233;28;20492;-50
2022/08/27 07:34:12;;;;;;;14.83;11.40;;;20.20;99.90;;;;;;5268937;28;20555;-51
2022/08/27 07:36:42;;;;;;;16.90;11.53;;;20.30;99.90;;;;;;5264226;28;21937;-51
2022/08/27 07:39:15;;;;;;;24.80;13.43;;;20.30;99.90;;;;;;5241389;28;20194;-51
2022/08/27 07:44:35;;;;;;;16.83;11.00;;;20.40;99.90;;;;;;5262734;28;20450;-52
2022/08/27 07:47:06;;;;;;;19.60;11.30;;;20.50;99.90;;;;;;5242388;28;20439;-50
2022/08/27 07:49:37;;;;;;;12.90;11.37;;;20.60;99.90;;;;;;5244806;28;20766;-52
2022/08/27 07:52:08;;;;;;;13.33;10.63;;;20.60;99.90;;;;;;5247693;28;20500;-51
2022/08/27 07:54:40;;;;;;;19.53;9.77;;;20.60;99.90;;;;;;5260191;28;20213;-51
2022/08/27 07:57:11;;;;;;;14.23;10.67;;;20.60;99.90;;;;;;5256796;28;20174;-51
2022/08/27 07:59:41;;;;;;;22.03;11.10;;;20.60;99.90;;;;;;5242464;28;20582;-51
2022/08/27 08:02:12;;;;;;;12.60;8.53;;;20.60;99.90;;;;;;5240492;28;20182;-50
2022/08/27 08:04:42;;;;;;;9.50;8.50;;;20.70;99.90;;;;;;5264051;28;20189;-51
2022/08/27 08:07:13;;;;;;;7.80;7.00;;;20.80;99.90;;;;;;5256751;28;20193;-50
2022/08/27 08:09:44;;;;;;;10.57;7.80;;;20.90;99.90;;;;;;5261148;28;20540;-51
2022/08/27 08:12:15;;;;;;;8.23;7.53;;;21.10;99.90;;;;;;5240410;28;20577;-53
2022/08/27 08:14:45;;;;;;;10.03;7.27;;;21.20;99.90;;;;;;5262361;28;20493;-51
2022/08/27 08:17:19;;;;;;;6.93;6.33;;;21.10;99.90;;;;;;5235803;28;20183;-51
2022/08/27 08:19:50;;;;;;;7.00;6.40;;;21.20;99.90;;;;;;5245755;28;20801;-50
2022/08/27 08:22:21;;;;;;;10.13;8.13;;;21.30;99.90;;;;;;5267139;28;20595;-52
2022/08/27 08:24:52;;;;;;;6.47;5.97;;;21.40;99.90;;;;;;5267982;28;20471;-50
2022/08/27 08:27:22;;;;;;;9.10;7.03;;;21.50;99.90;;;;;;5256694;28;20189;-53
2022/08/27 08:29:53;;;;;;;7.70;7.00;;;21.70;99.90;;;;;;5259147;28;20438;-51
2022/08/27 08:32:24;;;;;;;8.97;7.40;;;21.60;99.90;;;;;;5246087;28;20642;-51
2022/08/27 08:34:55;;;;;;;7.03;6.43;;;21.60;99.90;;;;;;5255722;28;20212;-50
2022/08/27 08:37:26;;;;;;;12.10;7.97;;;21.50;99.90;;;;;;5241673;28;20219;-49
2022/08/27 08:39:57;;;;;;;9.40;7.77;;;21.50;99.90;;;;;;5235024;28;20534;-50
2022/08/27 08:42:50;;;;;;;10.93;6.97;;;21.70;99.90;;;;;;5253943;28;20514;-51
2022/08/27 08:45:26;;;;;;;7.50;6.80;;;21.90;99.90;;;;;;5258921;28;20497;-51
2022/08/27 08:48:06;;;;;;;8.33;7.43;;;22.20;99.90;;;;;;5256314;28;20470;-51
2022/08/27 08:51:06;;;;;;;7.57;6.87;;;22.20;99.90;;;;;;5244665;28;20435;-50
2022/08/27 08:53:51;;;;;;;7.23;6.50;;;22.10;99.90;;;;;;5247328;28;20624;-50
2022/08/27 08:56:51;;;;;;;10.63;8.13;;;21.80;99.90;;;;;;5242130;28;20431;-50
2022/08/27 08:59:38;;;;;;;7.87;7.07;;;21.60;99.90;;;;;;5232820;28;20466;-53
2022/08/27 09:02:13;;;;;;;13.47;8.43;;;21.80;99.90;;;;;;5258647;28;20439;-50
2022/08/27 09:04:44;;;;;;;7.63;6.80;;;21.70;99.90;;;;;;5259780;28;20441;-52
2022/08/27 09:07:23;;;;;;;8.43;7.23;;;21.70;99.90;;;;;;5254368;28;20432;-52
2022/08/27 09:10:12;;;;;;;10.40;7.80;;;21.70;99.90;;;;;;5257117;28;20277;-52
2022/08/27 09:12:43;;;;;;;12.07;6.87;;;22.00;99.90;;;;;;5242502;28;20439;-52
2022/08/27 09:15:26;;;;;;;8.30;7.10;;;21.80;99.90;;;;;;5244848;28;20582;-53
2022/08/27 09:18:09;;;;;;;12.90;9.30;;;22.00;99.90;;;;;;5264114;28;20288;-53
2022/08/27 09:20:44;;;;;;;11.70;8.83;;;21.90;99.90;;;;;;5247406;28;20431;-51
2022/08/27 09:23:52;;;;;;;9.20;7.20;;;21.80;99.90;;;;;;5257335;28;20948;-52
2022/08/27 09:26:26;;;;;;;14.00;8.90;;;21.60;99.90;;;;;;5186327;28;20997;-50
2022/08/27 09:29:15;;;;;;;12.60;8.60;;;21.50;99.90;;;;;;5235432;28;20456;-50
2022/08/27 09:31:55;;;;;;;12.50;9.33;;;21.70;99.90;;;;;;5259864;28;20434;-48
2022/08/27 09:34:42;;;;;;;9.73;6.53;;;22.00;99.90;;;;;;5254249;28;20827;-50
2022/08/27 09:37:19;;;;;;;12.20;6.20;;;22.30;99.90;;;;;;5262776;28;20519;-48
2022/08/27 09:40:06;;;;;;;10.30;6.63;;;22.80;99.90;;;;;;5257909;28;20715;-52
2022/08/27 09:42:47;;;;;;;8.70;6.00;;;23.10;99.90;;;;;;5258446;28;20429;-52
2022/08/27 09:45:22;;;;;;;7.53;5.70;;;23.40;99.90;;;;;;5248252;28;20440;-53
2022/08/27 09:48:01;;;;;;;6.07;5.43;;;23.20;99.90;;;;;;5258000;23;20855;-50
2022/08/27 09:50:54;;;;;;;6.37;5.20;;;23.00;99.90;;;;;;5281977;28;20505;-50
2022/08/27 09:53:43;;;;;;;7.80;5.77;;;23.00;99.90;;;;;;5289495;27;20430;-50
2022/08/27 09:56:30;;;;;;;8.30;6.57;;;23.10;99.90;;;;;;5282926;27;20439;-51
2022/08/27 09:59:22;;;;;;;6.53;5.93;;;23.20;99.90;;;;;;5287488;28;20458;-50
2022/08/27 10:01:55;;;;;;;5.87;5.37;;;23.20;99.90;;;;;;5274479;28;20434;-52
2022/08/27 10:04:39;;;;;;;10.77;5.80;;;23.20;99.90;;;;;;5278002;27;20439;-50
2022/08/27 10:07:36;;;;;;;5.00;4.60;;;23.20;99.90;;;;;;5275470;27;20472;-52
2022/08/27 10:10:16;;;;;;;6.00;5.40;;;23.30;99.90;;;;;;5280304;27;20449;-50
2022/08/27 10:12:47;;;;;;;6.37;5.77;;;23.50;99.90;;;;;;5284098;27;20445;-49
2022/08/27 10:15:18;;;;;;;8.13;5.37;;;23.50;99.90;;;;;;5281976;27;20460;-52
2022/08/27 10:18:16;;;;;;;5.20;4.87;;;23.30;99.90;;;;;;5288813;28;20212;-50
2022/08/27 10:21:27;;;;;;;5.70;5.20;;;23.20;99.90;;;;;;5276033;27;20436;-51
2022/08/27 10:24:07;;;;;;;7.43;4.77;;;23.00;99.90;;;;;;5285781;28;20438;-49
2022/08/27 10:26:55;;;;;;;5.43;4.90;;;22.90;99.90;;;;;;5276570;27;20467;-50
2022/08/27 10:29:55;;;;;;;10.67;6.83;;;22.80;99.90;;;;;;5274981;28;20459;-50
2022/08/27 10:33:00;;;;;;;10.20;5.33;;;22.80;99.90;;;;;;5275992;27;20431;-53
2022/08/27 10:35:42;;;;;;;4.93;4.53;;;22.70;99.90;;;;;;5279243;27;20508;-53
2022/08/27 10:38:30;;;;;;;5.07;4.50;;;22.80;99.90;;;;;;5271983;28;20458;-50
2022/08/27 10:41:20;;;;;;;5.60;5.30;;;22.70;99.90;;;;;;5277297;28;20438;-50
2022/08/27 10:44:17;;;;;;;5.97;3.77;;;22.70;99.90;;;;;;5280249;28;20481;-50
2022/08/27 10:46:51;;;;;;;7.03;5.20;;;22.70;99.90;;;;;;5274159;28;20940;-50
2022/08/27 10:49:43;;;;;;;10.60;5.40;;;22.70;99.90;;;;;;5280549;27;20470;-50
2022/08/27 10:52:36;;;;;;;7.50;4.90;;;22.70;99.90;;;;;;5283267;28;20435;-50
2022/08/27 10:55:21;;;;;;;5.33;4.57;;;22.80;99.90;;;;;;5277628;27;20468;-50
2022/08/27 10:57:52;;;;;;;6.53;5.93;;;22.90;99.90;;;;;;5284050;28;20455;-51
2022/08/27 11:00:27;;;;;;;8.13;5.70;;;23.00;99.90;;;;;;5278471;28;20533;-51
2022/08/27 11:03:15;;;;;;;6.63;5.77;;;23.10;99.90;;;;;;5275980;27;20263;-50
2022/08/27 11:05:49;;;;;;;4.67;4.27;;;23.40;99.90;;;;;;5280147;27;20478;-50
2022/08/27 11:08:43;;;;;;;4.63;4.20;;;23.50;99.90;;;;;;5289457;27;21116;-52
2022/08/27 11:11:31;;;;;;;5.27;4.70;;;23.70;99.90;;;;;;5285527;28;20464;-50
2022/08/27 11:14:08;;;;;;;4.07;3.87;;;24.00;99.90;;;;;;5268105;27;20848;-51
2022/08/27 11:16:44;;;;;;;5.03;3.97;;;24.20;99.90;;;;;;5289839;27;20425;-49
2022/08/27 11:19:25;;;;;;;8.73;5.30;;;24.30;99.90;;;;;;5283056;27;20480;-50
2022/08/27 11:22:09;;;;;;;4.87;4.30;;;24.30;99.90;;;;;;5275059;27;20555;-50
2022/08/27 11:25:00;;;;;;;5.63;5.23;;;24.00;99.90;;;;;;5280207;27;20505;-50
2022/08/27 11:27:34;;;;;;;5.10;4.27;;;23.60;99.90;;;;;;5283824;27;20433;-51
2022/08/27 11:30:15;;;;;;;3.77;3.60;;;23.50;99.90;;;;;;5282977;28;20423;-50
2022/08/27 11:32:54;;;;;;;9.23;4.83;;;23.60;99.90;;;;;;5279043;27;20438;-52
2022/08/27 11:35:47;;;;;;;4.97;4.57;;;23.70;99.90;;;;;;5278611;28;20455;-51
2022/08/27 11:38:36;;;;;;;5.87;4.40;;;23.80;99.90;;;;;;5277496;28;20887;-50
2022/08/27 11:41:37;;;;;;;7.13;4.20;;;23.90;99.90;;;;;;5288176;27;20432;-51
2022/08/27 11:44:08;;;;;;;10.43;7.13;;;24.00;99.90;;;;;;5290276;28;20802;-51
2022/08/27 11:46:48;;;;;;;5.20;4.70;;;24.00;99.90;;;;;;5297551;27;20810;-50
2022/08/27 11:49:56;;;;;;;7.53;5.97;;;24.20;99.90;;;;;;5292497;27;20477;-50
2022/08/27 11:52:34;;;;;;;4.20;3.90;;;24.40;99.90;;;;;;5184206;28;20450;-51
2022/08/27 11:55:20;;;;;;;4.27;4.07;;;24.70;99.90;;;;;;5261055;27;20499;-50
2022/08/27 11:58:09;;;;;;;9.70;7.20;;;24.90;99.90;;;;;;5278962;28;20523;-51
2022/08/27 12:00:41;;;;;;;4.93;4.00;;;25.00;99.90;;;;;;5277087;28;20468;-49
2022/08/27 12:03:18;;;;;;;3.20;3.10;;;25.30;99.90;;;;;;5282016;27;20478;-50
2022/08/27 12:05:51;;;;;;;3.50;3.20;;;25.70;99.90;;;;;;5280393;27;20955;-49
2022/08/27 12:08:22;;;;;;;5.70;4.20;;;26.00;99.90;;;;;;5287961;27;20934;-50
2022/08/27 12:11:15;;;;;;;6.13;4.47;;;26.20;99.90;;;;;;5280698;28;20430;-53
2022/08/27 12:14:13;;;;;;;4.17;3.83;;;26.30;99.90;;;;;;5278496;27;20883;-54
2022/08/27 12:17:10;;;;;;;4.00;3.37;;;26.10;99.90;;;;;;5279203;28;20427;-52
2022/08/27 12:19:59;;;;;;;4.07;3.70;;;25.40;99.90;;;;;;5274743;28;20512;-51
2022/08/27 12:25:33;;;;;;;5.53;4.60;;;24.80;99.90;;;;;;5279622;28;20457;-50
2022/08/27 12:28:07;;;;;;;5.80;4.47;;;24.70;99.90;;;;;;5289192;28;20929;-52
2022/08/27 12:30:50;;;;;;;5.13;4.63;;;24.70;99.90;;;;;;5275216;28;20225;-52
2022/08/27 12:33:38;;;;;;;8.47;4.30;;;24.60;99.90;;;;;;5276180;28;20446;-50
2022/08/27 12:36:18;;;;;;;4.60;3.90;;;24.70;99.90;;;;;;5279666;28;20461;-49
2022/08/27 12:38:53;;;;;;;5.47;4.00;;;25.10;99.90;;;;;;5279525;28;20455;-51
2022/08/27 12:41:38;;;;;;;10.17;7.57;;;25.50;99.90;;;;;;5280762;28;20488;-51
2022/08/27 12:44:15;;;;;;;6.30;4.47;;;25.50;99.90;;;;;;5282030;28;20496;-52
2022/08/27 12:46:50;;;;;;;5.10;4.50;;;25.50;99.90;;;;;;5280780;28;20802;-50
2022/08/27 12:49:26;;;;;;;5.47;4.83;;;25.60;99.90;;;;;;5277124;28;20954;-50
2022/08/27 12:52:00;;;;;;;4.03;3.60;;;25.70;99.90;;;;;;5278493;28;20867;-50
2022/08/27 12:54:50;;;;;;;5.70;4.70;;;25.90;99.90;;;;;;5274861;28;20870;-52
2022/08/27 12:57:35;;;;;;;5.97;4.57;;;25.90;99.90;;;;;;5268877;28;20450;-51
2022/08/27 13:00:14;;;;;;;7.60;5.10;;;25.90;99.90;;;;;;5278323;27;20438;-53
2022/08/27 13:03:06;;;;;;;3.87;3.57;;;25.70;99.90;;;;;;5298072;27;21014;-50
2022/08/27 13:05:44;;;;;;;4.53;3.67;;;25.50;99.90;;;;;;5283295;27;20444;-52
2022/08/27 13:08:17;;;;;;;4.20;3.60;;;25.40;99.90;;;;;;5283125;27;21003;-50
2022/08/27 13:10:49;;;;;;;6.67;3.77;;;25.40;99.90;;;;;;5281943;28;20468;-50
2022/08/27 13:13:23;;;;;;;3.63;3.33;;;25.30;99.90;;;;;;5289158;28;20453;-50
2022/08/27 13:15:57;;;;;;;3.87;3.60;;;25.10;99.90;;;;;;5288104;27;20434;-50
2022/08/27 13:18:28;;;;;;;4.20;3.43;;;25.10;99.90;;;;;;5281201;27;20463;-56
2022/08/27 13:21:21;;;;;;;4.57;4.03;;;25.10;99.90;;;;;;5288929;28;21003;-49
2022/08/27 13:24:01;;;;;;;4.50;3.53;;;25.10;99.90;;;;;;5286044;28;20204;-52